createdAt,value
2022-10-09T00:04:19.746Z,2.40
2022-10-09T00:08:45.074Z,2.30
2022-10-09T00:13:13.261Z,2.27
2022-10-09T00:17:38.763Z,1.60
2022-10-09T00:22:04.166Z,2.60
2022-10-09T00:26:29.685Z,2.07
2022-10-09T00:30:55.230Z,2.30
2022-10-09T00:39:46.898Z,1.83
2022-10-09T00:44:57.134Z,1.30
2022-10-09T00:49:32.345Z,1.90
2022-10-09T00:53:58.457Z,2.67
2022-10-09T00:58:24.506Z,2.40
2022-10-09T01:02:50.147Z,2.23
2022-10-09T01:07:45.529Z,2.43
2022-10-09T01:12:47.057Z,2.10
2022-10-09T01:31:47.626Z,2.20
2022-10-09T01:36:15.130Z,2.70
2022-10-09T01:40:40.372Z,2.63
2022-10-09T01:45:06.303Z,2.20
2022-10-09T04:51:50.160Z,2.70
2022-10-09T04:56:18.996Z,2.20
2022-10-09T05:00:46.827Z,1.97
2022-10-09T05:05:12.050Z,2.13
2022-10-09T05:09:37.293Z,2.80
2022-10-09T05:14:02.470Z,1.90
2022-10-09T05:18:28.644Z,2.23
2022-10-09T05:22:53.809Z,2.40
2022-10-09T05:27:19.105Z,2.03
2022-10-09T05:31:49.090Z,2.90
2022-10-09T05:36:15.239Z,2.07
2022-10-09T05:40:50.258Z,2.53
2022-10-09T05:45:15.654Z,2.00
2022-10-09T05:49:42.010Z,2.53
2022-10-09T05:54:07.446Z,1.77
2022-10-09T05:58:32.734Z,1.97
2022-10-09T06:02:58.018Z,2.00
2022-10-09T06:07:23.237Z,1.80
2022-10-09T06:11:48.956Z,2.20
2022-10-09T06:16:16.630Z,2.20
2022-10-09T06:20:41.845Z,2.30
2022-10-09T06:25:07.739Z,2.00
2022-10-09T06:29:32.948Z,2.30
2022-10-09T06:34:03.368Z,2.70
2022-10-09T06:38:28.695Z,1.60
2022-10-09T06:42:54.027Z,1.87
2022-10-09T06:47:19.299Z,2.33
2022-10-09T06:51:44.595Z,2.40
2022-10-09T06:56:12.344Z,3.10
2022-10-09T07:00:37.573Z,3.60
2022-10-09T07:05:03.248Z,3.67
2022-10-09T07:09:28.739Z,4.30
2022-10-09T07:13:57.716Z,4.07
2022-10-09T07:18:22.919Z,4.53
2022-10-09T07:22:48.318Z,3.53
2022-10-09T07:27:13.646Z,4.27
2022-10-09T07:31:39.015Z,6.30
2022-10-09T07:36:06.567Z,5.33
2022-10-09T07:40:35.585Z,5.10
2022-10-09T07:45:00.844Z,4.80
2022-10-09T07:49:26.314Z,4.93
2022-10-09T07:53:52.570Z,4.33
2022-10-09T07:58:18.080Z,4.77
2022-10-09T08:02:43.994Z,4.40
2022-10-09T08:07:09.192Z,4.03
2022-10-09T08:11:35.195Z,4.20
2022-10-09T08:16:00.503Z,3.93
2022-10-09T08:20:25.813Z,4.10
2022-10-09T08:24:51.051Z,3.77
2022-10-09T09:10:31.922Z,3.10
2022-10-09T09:29:05.092Z,2.55
2022-10-09T09:33:57.530Z,2.50
2022-10-09T09:38:22.776Z,2.03
2022-10-09T09:42:48.416Z,2.20
2022-10-09T09:47:20.728Z,2.07
2022-10-09T09:51:48.567Z,2.10
2022-10-09T09:56:13.867Z,2.00
2022-10-09T10:00:39.230Z,1.87
2022-10-09T10:10:29.000Z,2.43
2022-10-09T10:14:54.207Z,2.30
2022-10-09T10:19:27.264Z,1.20
2022-10-09T10:24:05.288Z,1.40
2022-10-09T10:28:41.488Z,1.60
2022-10-09T10:33:14.978Z,1.40
2022-10-09T11:05:55.142Z,1.37
2022-10-09T11:10:37.147Z,1.67
2022-10-09T11:15:23.367Z,1.03
2022-10-09T11:20:16.231Z,1.90
2022-10-09T11:34:04.763Z,1.50
2022-10-09T12:24:44.855Z,1.30
2022-10-09T13:41:38.827Z,1.30
2022-10-09T14:17:01.357Z,1.50
2022-10-09T14:21:27.157Z,1.17
2022-10-09T14:25:52.419Z,1.20
2022-10-09T14:43:33.790Z,1.43
2022-10-09T14:47:58.985Z,1.30
2022-10-09T14:52:24.176Z,1.43
2022-10-09T14:56:49.341Z,1.17
2022-10-09T15:01:17.505Z,1.70
2022-10-09T15:05:42.673Z,1.60
2022-10-09T15:10:08.287Z,1.70
2022-10-09T15:14:33.443Z,2.03
2022-10-09T15:18:59.099Z,1.67
2022-10-09T15:23:24.403Z,1.60
2022-10-09T15:27:53.876Z,1.57
2022-10-09T15:32:19.955Z,1.37
2022-10-09T15:36:46.411Z,1.57
2022-10-09T15:41:31.077Z,1.30
2022-10-09T15:46:03.848Z,1.80
2022-10-09T15:50:29.097Z,1.63
2022-10-09T15:54:54.290Z,1.60
2022-10-09T15:59:19.581Z,1.57
2022-10-09T16:03:45.532Z,1.50
2022-10-09T16:08:11.848Z,1.30
2022-10-09T16:12:37.148Z,1.20
2022-10-09T16:17:02.426Z,1.70
2022-10-09T16:21:29.187Z,1.30
2022-10-09T16:25:59.752Z,1.57
2022-10-09T16:30:25.971Z,1.80
2022-10-09T16:34:52.133Z,1.57
2022-10-09T16:39:17.982Z,1.67
2022-10-09T16:43:44.976Z,2.10
2022-10-09T16:48:10.214Z,2.97
2022-10-09T16:52:35.399Z,2.93
2022-10-09T16:57:01.917Z,3.30
2022-10-09T17:01:28.223Z,2.70
2022-10-09T17:05:53.490Z,3.10
2022-10-09T17:10:18.826Z,4.07
2022-10-09T17:14:44.083Z,5.27
2022-10-09T17:19:09.649Z,4.77
2022-10-09T17:32:33.135Z,4.17
2022-10-09T17:36:58.336Z,3.10
2022-10-09T17:41:25.258Z,4.60
2022-10-09T17:45:51.778Z,4.75
2022-10-09T17:59:08.112Z,3.90
2022-10-09T18:03:33.890Z,4.07
2022-10-09T18:16:49.460Z,4.47
2022-10-09T18:21:19.131Z,4.17
2022-10-09T18:30:11.070Z,4.20
2022-10-09T18:34:39.220Z,4.07
2022-10-09T19:27:51.154Z,3.80
2022-10-09T19:32:20.317Z,3.93
2022-10-09T19:36:49.562Z,3.80
2022-10-09T19:45:41.505Z,4.93
2022-10-09T19:50:06.903Z,4.27
2022-10-09T19:54:34.150Z,3.60
2022-10-09T19:59:02.515Z,4.23
2022-10-09T20:03:27.787Z,3.70
2022-10-09T20:12:19.249Z,3.00
2022-10-09T20:21:12.635Z,2.93
2022-10-09T20:25:37.905Z,3.53
2022-10-09T20:30:03.519Z,2.63
2022-10-09T20:34:28.730Z,3.47
2022-10-09T20:38:59.382Z,3.17
2022-10-09T20:47:50.265Z,3.93
2022-10-09T20:52:15.482Z,4.90
2022-10-09T20:56:40.708Z,3.67
2022-10-09T21:01:11.242Z,3.50
2022-10-09T21:05:43.404Z,2.20
2022-10-09T21:10:09.466Z,2.60
2022-10-09T21:14:37.166Z,2.10
2022-10-09T21:19:04.981Z,2.37
2022-10-09T21:23:30.190Z,1.90
2022-10-09T21:27:55.414Z,1.80
2022-10-09T21:32:20.612Z,2.00
2022-10-09T21:41:38.906Z,1.70
2022-10-09T21:46:04.126Z,1.60
2022-10-09T21:50:29.862Z,2.00
2022-10-09T21:54:55.172Z,1.70
2022-10-09T21:59:20.371Z,2.00
2022-10-09T22:03:45.676Z,1.70
2022-10-09T22:08:10.886Z,1.57
2022-10-09T22:12:36.197Z,1.50
2022-10-09T22:17:01.438Z,1.60
2022-10-09T22:21:26.689Z,1.70
2022-10-09T22:26:01.673Z,1.90
2022-10-09T22:30:27.007Z,1.50
2022-10-09T22:34:52.413Z,1.50
2022-10-09T22:39:17.901Z,1.60
2022-10-09T22:43:46.334Z,2.00
2022-10-09T22:48:11.543Z,1.70
2022-10-09T22:52:36.771Z,1.77
2022-10-09T22:57:01.947Z,2.20
2022-10-09T23:01:31.895Z,1.60
2022-10-09T23:06:13.550Z,1.63
2022-10-09T23:10:40.667Z,1.50
2022-10-09T23:15:06.587Z,1.60
2022-10-09T23:19:31.807Z,1.90
2022-10-09T23:23:58.077Z,1.60
2022-10-09T23:28:23.433Z,1.90
2022-10-09T23:32:52.150Z,1.80
2022-10-09T23:37:17.722Z,1.60
2022-10-09T23:41:42.949Z,1.90
2022-10-09T23:46:22.915Z,1.40
2022-10-09T23:50:49.615Z,1.67
2022-10-09T23:55:14.977Z,1.60
2022-10-09T23:59:40.308Z,1.80
